Terminal Aerodrome Forecast
Issued by NWS Nashville, TN

Home | Current Version | Previous Version | Text Only | Print | Product List | Glossary On
Versions: 1 2 3 4 5 6 7 8 9 10 11 12 13 14 15
023
FTUS44 KOHX 140521
TAFBNA
TAF
KBNA 140521Z 1406/1506 09008KT P6SM OVC080
     FM141600 15010KT 5SM -SHSN BR OVC040
     FM142100 16011KT 4SM -SHSNPL BR OVC025
     FM150000 16008KT 4SM -RA OVC015=

USA.gov is the U.S. government's official web portal to all federal, state and local government web resources and services.